createdAt,value
2019-03-10T00:00:59.213Z,1005.53
2019-03-10T00:01:59.247Z,1005.44
2019-03-10T00:02:59.264Z,1005.51
2019-03-10T00:03:59.287Z,1005.44
2019-03-10T00:04:59.313Z,1005.44
2019-03-10T00:05:59.333Z,1005.38
2019-03-10T00:06:59.361Z,1005.37
2019-03-10T00:07:59.383Z,1005.35
2019-03-10T00:08:59.410Z,1005.41
2019-03-10T00:09:59.432Z,1005.32
2019-03-10T00:10:59.456Z,1005.32
2019-03-10T00:11:59.483Z,1005.39
2019-03-10T00:12:59.506Z,1005.29
2019-03-10T00:13:59.528Z,1005.29
2019-03-10T00:14:59.551Z,1005.35
2019-03-10T00:15:59.582Z,1005.31
2019-03-10T00:16:59.606Z,1005.37
2019-03-10T00:17:59.625Z,1005.37
2019-03-10T00:18:59.652Z,1005.35
2019-03-10T00:19:59.672Z,1005.30
2019-03-10T00:20:59.705Z,1005.28
2019-03-10T00:21:59.725Z,1005.35
2019-03-10T00:22:59.748Z,1005.33
2019-03-10T00:23:59.772Z,1005.33
2019-03-10T00:24:59.794Z,1005.30
2019-03-10T00:25:59.820Z,1005.32
2019-03-10T00:26:59.857Z,1005.25
2019-03-10T00:27:59.873Z,1005.24
2019-03-10T00:28:59.894Z,1005.24
2019-03-10T00:29:59.917Z,1005.40
2019-03-10T00:30:59.944Z,1005.20
2019-03-10T00:31:59.964Z,1005.17
2019-03-10T00:32:59.996Z,1005.15
2019-03-10T00:34:00.017Z,1005.15
2019-03-10T00:35:00.037Z,1005.12
2019-03-10T00:36:00.059Z,1005.10
2019-03-10T00:37:00.101Z,1005.07
2019-03-10T00:38:00.111Z,1005.06
2019-03-10T00:39:00.133Z,1005.02
2019-03-10T00:40:00.309Z,1005.04
2019-03-10T00:41:00.182Z,1005.04
2019-03-10T00:42:00.212Z,1005.02
2019-03-10T00:43:00.228Z,1005.05
2019-03-10T00:44:00.304Z,1005.00
2019-03-10T00:45:00.331Z,1004.98
2019-03-10T00:46:00.300Z,1004.98
2019-03-10T00:47:00.327Z,1004.90
2019-03-10T00:48:00.355Z,1004.90
2019-03-10T00:49:00.381Z,1004.93
2019-03-10T00:50:00.402Z,1004.94
2019-03-10T00:51:00.420Z,1004.92
2019-03-10T00:52:00.455Z,1004.95
2019-03-10T00:53:00.482Z,1004.92
2019-03-10T00:54:00.515Z,1004.97
2019-03-10T00:55:00.538Z,1004.92
2019-03-10T00:56:00.548Z,1004.89
2019-03-10T00:57:00.573Z,1004.91
2019-03-10T00:58:00.590Z,1004.86
2019-03-10T00:59:00.614Z,1004.83
2019-03-10T01:00:01.199Z,1004.79
2019-03-10T01:01:00.659Z,1004.79
2019-03-10T01:02:00.689Z,1004.79
2019-03-10T01:03:00.711Z,1004.75
2019-03-10T01:04:00.764Z,1004.77
2019-03-10T01:05:00.765Z,1004.74
2019-03-10T01:06:00.780Z,1004.73
2019-03-10T01:07:01.819Z,1004.75
2019-03-10T01:08:00.830Z,1004.70
2019-03-10T01:09:00.852Z,1004.67
2019-03-10T01:10:00.889Z,1004.63
2019-03-10T01:11:00.901Z,1004.62
2019-03-10T01:12:00.923Z,1004.62
2019-03-10T01:13:00.954Z,1004.64
2019-03-10T01:14:00.975Z,1004.63
2019-03-10T01:15:00.998Z,1004.60
2019-03-10T01:16:01.027Z,1004.56
2019-03-10T01:17:01.050Z,1004.58
2019-03-10T01:18:01.085Z,1004.59
2019-03-10T01:19:01.092Z,1004.59
2019-03-10T01:20:01.123Z,1004.51
2019-03-10T01:21:01.141Z,1004.49
2019-03-10T01:22:01.164Z,1004.46
2019-03-10T01:23:01.187Z,1004.49
2019-03-10T01:24:01.217Z,1004.51
2019-03-10T01:25:01.235Z,1004.40
2019-03-10T01:26:01.264Z,1004.37
2019-03-10T01:27:01.284Z,1004.40
2019-03-10T01:28:01.306Z,1004.36
2019-03-10T01:29:01.330Z,1004.29
2019-03-10T01:30:01.360Z,1004.31
2019-03-10T01:31:01.380Z,1004.25
2019-03-10T01:32:01.403Z,1004.24
2019-03-10T01:33:01.431Z,1004.25
2019-03-10T01:34:01.458Z,1004.29
2019-03-10T01:35:01.475Z,1004.24
2019-03-10T01:36:01.501Z,1004.18
2019-03-10T01:37:01.528Z,1004.24
2019-03-10T01:38:01.547Z,1004.22
2019-03-10T01:39:01.570Z,1004.19
2019-03-10T01:40:01.596Z,1004.12
2019-03-10T01:41:01.620Z,1004.10
2019-03-10T01:42:01.642Z,1004.14
2019-03-10T01:43:01.663Z,1004.18
2019-03-10T01:44:01.688Z,1004.14
2019-03-10T01:45:01.715Z,1004.16
2019-03-10T01:46:01.738Z,1004.15
2019-03-10T01:47:01.763Z,1004.09
2019-03-10T01:48:01.790Z,1004.12
2019-03-10T01:49:01.812Z,1004.09
2019-03-10T01:50:01.841Z,1004.10
2019-03-10T01:51:01.858Z,1004.14
2019-03-10T01:52:01.888Z,1004.15
2019-03-10T01:53:01.908Z,1004.13
2019-03-10T01:54:01.928Z,1004.04
2019-03-10T01:55:01.954Z,1004.01
2019-03-10T01:56:01.988Z,1003.98
2019-03-10T01:57:02.002Z,1003.96
2019-03-10T01:58:02.029Z,1003.91
2019-03-10T01:59:02.046Z,1003.92
2019-03-10T02:00:02.070Z,1003.79
2019-03-10T02:01:02.097Z,1003.87
2019-03-10T02:02:02.128Z,1003.83
2019-03-10T02:03:02.142Z,1003.77
2019-03-10T02:04:02.169Z,1003.78
2019-03-10T02:05:02.189Z,1003.78
2019-03-10T02:06:02.218Z,1003.72
2019-03-10T02:07:02.236Z,1003.69
2019-03-10T02:08:02.265Z,1003.70
2019-03-10T02:09:02.295Z,1003.70
2019-03-10T02:10:02.313Z,1003.67
2019-03-10T02:11:02.335Z,1003.66
2019-03-10T02:12:02.357Z,1003.58
2019-03-10T02:13:02.380Z,1003.55
2019-03-10T02:14:02.432Z,1003.47
2019-03-10T02:15:02.433Z,1003.47
2019-03-10T02:16:02.454Z,1003.36
2019-03-10T02:17:02.480Z,1003.37
2019-03-10T02:18:02.502Z,1003.37
2019-03-10T02:19:02.530Z,1003.37
2019-03-10T02:20:02.550Z,1003.33
2019-03-10T02:21:02.584Z,1003.28
2019-03-10T02:22:02.598Z,1003.27
2019-03-10T02:23:02.624Z,1003.18
2019-03-10T02:24:02.647Z,1003.21
2019-03-10T02:25:02.670Z,1003.21
2019-03-10T02:26:02.693Z,1003.21
2019-03-10T02:27:02.718Z,1003.16
2019-03-10T02:28:02.740Z,1003.13
2019-03-10T02:29:02.764Z,1003.17
2019-03-10T02:30:02.794Z,1003.14
2019-03-10T02:31:02.821Z,1003.05
2019-03-10T02:32:02.838Z,1003.03
2019-03-10T02:33:02.862Z,1002.99
2019-03-10T02:34:02.882Z,1003.00
2019-03-10T02:35:02.907Z,1002.97
2019-03-10T02:36:02.939Z,1002.92
2019-03-10T02:37:02.957Z,1002.86
2019-03-10T02:38:02.981Z,1002.90
2019-03-10T02:39:03.007Z,1002.86
2019-03-10T02:40:03.030Z,1002.82
2019-03-10T02:41:03.053Z,1002.82
2019-03-10T02:42:03.080Z,1002.81
2019-03-10T02:43:03.102Z,1002.74
2019-03-10T02:44:03.144Z,1002.69
2019-03-10T02:45:03.152Z,1002.69
2019-03-10T02:46:03.175Z,1002.71
2019-03-10T02:47:03.199Z,1002.64
2019-03-10T02:48:03.221Z,1002.62
2019-03-10T02:49:03.244Z,1002.64
2019-03-10T02:50:03.274Z,1002.66
2019-03-10T02:51:03.293Z,1002.67
2019-03-10T02:52:03.325Z,1002.63
2019-03-10T02:53:03.345Z,1002.58
2019-03-10T02:54:03.382Z,1002.54
2019-03-10T02:55:03.390Z,1002.53
2019-03-10T02:56:03.417Z,1002.56
2019-03-10T02:57:03.437Z,1002.54
2019-03-10T02:58:03.462Z,1002.50
2019-03-10T02:59:03.488Z,1002.53
2019-03-10T03:00:03.516Z,1002.55
2019-03-10T03:01:03.541Z,1002.48
2019-03-10T03:02:03.562Z,1002.44
2019-03-10T03:03:03.585Z,1002.42
2019-03-10T03:04:03.605Z,1002.45
2019-03-10T03:05:03.646Z,1002.43
2019-03-10T03:06:03.654Z,1002.45
2019-03-10T03:07:03.683Z,1002.44
2019-03-10T03:08:03.715Z,1002.40
2019-03-10T03:09:03.726Z,1002.37
2019-03-10T03:10:03.769Z,1002.33
2019-03-10T03:11:03.773Z,1002.39
2019-03-10T03:12:03.798Z,1002.27
2019-03-10T03:13:03.843Z,1002.24
2019-03-10T03:14:03.876Z,1002.22
2019-03-10T03:15:03.876Z,1002.18
2019-03-10T03:16:03.896Z,1002.16
2019-03-10T03:17:03.923Z,1002.11
2019-03-10T03:18:03.952Z,1002.10
2019-03-10T03:19:03.966Z,1002.09
2019-03-10T03:20:03.992Z,1002.07
2019-03-10T03:21:04.016Z,1002.00
2019-03-10T03:22:04.039Z,1001.99
2019-03-10T03:23:04.066Z,1002.01
2019-03-10T03:24:04.103Z,1002.04
2019-03-10T03:25:04.118Z,1001.93
2019-03-10T03:26:04.151Z,1001.97
2019-03-10T03:27:04.162Z,1001.96
2019-03-10T03:28:04.184Z,1001.95
2019-03-10T03:29:04.228Z,1001.97
2019-03-10T03:30:04.231Z,1001.90
2019-03-10T03:31:04.262Z,1001.98
2019-03-10T03:32:04.283Z,1001.90
2019-03-10T03:33:04.319Z,1001.87
2019-03-10T03:34:04.341Z,1001.88
2019-03-10T03:35:04.353Z,1001.85
2019-03-10T03:36:04.384Z,1001.81
2019-03-10T03:37:04.409Z,1001.80
2019-03-10T03:38:04.425Z,1001.74
2019-03-10T03:39:04.452Z,1001.69
2019-03-10T03:40:04.475Z,1001.62
2019-03-10T03:41:04.501Z,1001.60
2019-03-10T03:42:04.545Z,1001.60
2019-03-10T03:43:04.548Z,1001.57
2019-03-10T03:44:04.589Z,1001.58
2019-03-10T03:45:04.598Z,1001.50
2019-03-10T03:46:04.626Z,1001.48
2019-03-10T03:47:04.645Z,1001.47
2019-03-10T03:48:04.670Z,1001.43
2019-03-10T03:49:04.694Z,1001.39
2019-03-10T03:50:04.729Z,1001.35
2019-03-10T03:51:04.742Z,1001.40
2019-03-10T03:52:04.763Z,1001.40
2019-03-10T03:53:04.790Z,1001.35
2019-03-10T03:54:04.813Z,1001.33
2019-03-10T03:55:04.839Z,1001.25
2019-03-10T03:56:04.861Z,1001.33
2019-03-10T03:57:04.885Z,1001.33
2019-03-10T03:58:04.906Z,1001.30
2019-03-10T03:59:04.945Z,1001.29
2019-03-10T04:00:04.959Z,1001.27
2019-03-10T04:01:04.980Z,1001.19
2019-03-10T04:02:05.004Z,1001.20
2019-03-10T04:03:05.030Z,1001.19
2019-03-10T04:04:05.052Z,1001.15
2019-03-10T04:05:05.078Z,1001.10
2019-03-10T04:06:05.110Z,1001.14
2019-03-10T04:07:05.127Z,1001.08
2019-03-10T04:08:05.163Z,1001.07
2019-03-10T04:09:05.174Z,1001.00
2019-03-10T04:10:05.199Z,1001.04
2019-03-10T04:11:05.228Z,1001.00
2019-03-10T04:12:05.244Z,1000.99
2019-03-10T04:13:05.279Z,1000.96
2019-03-10T04:14:05.303Z,1000.97
2019-03-10T04:15:05.320Z,1001.00
2019-03-10T04:16:05.348Z,1000.99
2019-03-10T04:17:05.387Z,1001.00
2019-03-10T04:18:05.390Z,1000.94
2019-03-10T04:19:05.411Z,1000.98
2019-03-10T04:20:05.448Z,1000.94
2019-03-10T04:21:05.468Z,1000.92
2019-03-10T04:22:05.482Z,1000.91
2019-03-10T04:23:05.513Z,1000.86
2019-03-10T04:24:05.556Z,1000.81
2019-03-10T04:25:05.572Z,1000.79
2019-03-10T04:26:05.591Z,1000.80
2019-03-10T04:27:05.606Z,1000.80
2019-03-10T04:28:05.652Z,1000.74
2019-03-10T04:29:05.653Z,1000.78
2019-03-10T04:30:05.679Z,1000.80
2019-03-10T04:31:05.735Z,1000.74
2019-03-10T04:32:05.744Z,1000.71
2019-03-10T04:33:05.757Z,1000.67
2019-03-10T04:34:05.784Z,1000.64
2019-03-10T04:35:05.847Z,1000.60
2019-03-10T04:36:05.825Z,1000.61
2019-03-10T04:37:05.846Z,1000.51
2019-03-10T04:38:05.867Z,1000.59
2019-03-10T04:39:05.904Z,1000.54
2019-03-10T04:40:05.918Z,1000.50
2019-03-10T04:41:05.942Z,1000.50
2019-03-10T04:42:05.969Z,1000.44
2019-03-10T04:43:05.989Z,1000.39
2019-03-10T04:44:06.012Z,1000.35
2019-03-10T04:45:06.049Z,1000.35
2019-03-10T04:46:06.067Z,1000.35
2019-03-10T04:47:06.089Z,1000.31
2019-03-10T04:48:06.110Z,1000.29
2019-03-10T04:49:06.134Z,1000.32
2019-03-10T04:50:06.157Z,1000.29
2019-03-10T04:51:06.179Z,1000.25
2019-03-10T04:52:06.210Z,1000.19
2019-03-10T04:53:06.240Z,1000.18
2019-03-10T04:54:06.254Z,1000.16
2019-03-10T04:55:06.279Z,1000.13
2019-03-10T04:56:06.305Z,1000.18
2019-03-10T04:57:06.325Z,1000.22
2019-03-10T04:58:06.347Z,1000.18
2019-03-10T04:59:06.381Z,1000.16
2019-03-10T05:00:06.401Z,1000.15
2019-03-10T05:01:06.427Z,1000.12
2019-03-10T05:02:06.442Z,1000.14
2019-03-10T05:03:06.478Z,1000.10
2019-03-10T05:04:06.495Z,1000.12
2019-03-10T05:05:06.519Z,1000.09
2019-03-10T05:06:06.546Z,1000.08
2019-03-10T05:07:06.563Z,1000.07
2019-03-10T05:08:06.594Z,1000.04
2019-03-10T05:09:06.631Z,1000.04
2019-03-10T05:10:06.636Z,1000.03
2019-03-10T05:11:06.662Z,1000.00
2019-03-10T05:12:06.686Z,1000.01
2019-03-10T05:13:06.708Z,999.99
2019-03-10T05:14:06.732Z,999.96
2019-03-10T05:15:06.768Z,999.94
2019-03-10T05:16:06.783Z,999.92
2019-03-10T05:17:06.806Z,999.92
2019-03-10T05:18:06.826Z,999.90
2019-03-10T05:19:06.871Z,999.89
2019-03-10T05:20:06.876Z,999.85
2019-03-10T05:21:06.900Z,999.82
2019-03-10T05:22:06.926Z,999.77
2019-03-10T05:23:06.950Z,999.75
2019-03-10T05:24:06.975Z,999.67
2019-03-10T05:25:06.998Z,999.68
2019-03-10T05:26:07.031Z,999.60
2019-03-10T05:27:07.046Z,999.58
2019-03-10T05:28:07.068Z,999.54
2019-03-10T05:29:07.092Z,999.52
2019-03-10T05:30:07.116Z,999.54
2019-03-10T05:31:07.142Z,999.43
2019-03-10T05:32:07.172Z,999.43
2019-03-10T05:33:07.190Z,999.46
2019-03-10T05:34:07.211Z,999.41
2019-03-10T05:35:07.238Z,999.45
2019-03-10T05:36:07.262Z,999.44
2019-03-10T05:37:07.287Z,999.40
2019-03-10T05:38:07.307Z,999.36
2019-03-10T05:39:07.334Z,999.32
2019-03-10T05:40:07.369Z,999.31
2019-03-10T05:41:07.385Z,999.29
2019-03-10T05:42:07.409Z,999.23
2019-03-10T05:43:07.435Z,999.23
2019-03-10T05:44:07.451Z,999.20
2019-03-10T05:45:07.482Z,999.13
2019-03-10T05:46:07.499Z,999.09
2019-03-10T05:47:07.528Z,999.07
2019-03-10T05:48:07.549Z,999.08
2019-03-10T05:49:07.572Z,999.06
2019-03-10T05:50:07.594Z,999.06
2019-03-10T05:51:07.621Z,999.04
2019-03-10T05:52:07.653Z,999.03
2019-03-10T05:53:07.679Z,998.99
2019-03-10T05:54:07.692Z,998.88
2019-03-10T05:55:07.721Z,998.87
2019-03-10T05:56:07.739Z,998.79
2019-03-10T05:57:07.773Z,998.80
2019-03-10T05:58:07.789Z,998.76
2019-03-10T05:59:07.817Z,998.67
2019-03-10T06:00:07.845Z,998.68
2019-03-10T06:01:07.864Z,998.61
2019-03-10T06:02:07.884Z,998.62
2019-03-10T06:03:07.932Z,998.59
2019-03-10T06:04:07.937Z,998.59
2019-03-10T06:05:07.967Z,998.53
2019-03-10T06:06:07.980Z,998.51
2019-03-10T06:07:08.007Z,998.48
2019-03-10T06:08:08.031Z,998.42
2019-03-10T06:09:08.056Z,998.44
2019-03-10T06:10:08.080Z,998.39
2019-03-10T06:11:08.101Z,998.36
2019-03-10T06:12:08.125Z,998.33
2019-03-10T06:13:08.149Z,998.30
2019-03-10T06:14:08.174Z,998.36
2019-03-10T06:15:08.201Z,998.35
2019-03-10T06:16:08.225Z,998.38
2019-03-10T06:17:08.253Z,998.33
2019-03-10T06:18:13.596Z,998.26
2019-03-10T06:19:08.306Z,998.24
2019-03-10T06:20:08.328Z,998.22
2019-03-10T06:21:08.346Z,998.21
2019-03-10T06:22:08.375Z,998.13
2019-03-10T06:23:08.402Z,998.11
2019-03-10T06:24:08.416Z,998.12
2019-03-10T06:25:08.444Z,998.07
2019-03-10T06:26:08.465Z,998.03
2019-03-10T06:27:08.492Z,997.98
2019-03-10T06:28:08.513Z,997.99
2019-03-10T06:29:08.540Z,997.96
2019-03-10T06:30:08.562Z,997.97
2019-03-10T06:31:08.592Z,997.92
2019-03-10T06:32:08.618Z,997.90
2019-03-10T06:33:08.635Z,997.89
2019-03-10T06:34:08.660Z,997.81
2019-03-10T06:35:08.685Z,997.85
2019-03-10T06:36:08.709Z,997.84
2019-03-10T06:37:08.732Z,997.75
2019-03-10T06:38:08.755Z,997.71
2019-03-10T06:39:08.790Z,997.70
2019-03-10T06:40:08.813Z,997.63
2019-03-10T06:41:08.895Z,997.61
2019-03-10T06:42:08.874Z,997.61
2019-03-10T06:43:08.888Z,997.65
2019-03-10T06:44:08.903Z,997.56
2019-03-10T06:45:08.927Z,997.49
2019-03-10T06:46:08.952Z,997.48
2019-03-10T06:47:08.982Z,997.40
2019-03-10T06:48:09.002Z,997.40
2019-03-10T06:49:09.026Z,997.36
2019-03-10T06:50:09.055Z,997.31
2019-03-10T06:51:09.073Z,997.32
2019-03-10T06:52:09.097Z,997.28
2019-03-10T06:53:09.121Z,997.27
2019-03-10T06:54:09.146Z,997.28
2019-03-10T06:55:09.168Z,997.33
2019-03-10T06:56:09.193Z,997.30
2019-03-10T06:57:09.221Z,997.33
2019-03-10T06:58:09.243Z,997.30
2019-03-10T06:59:09.266Z,997.31
2019-03-10T07:00:09.288Z,997.31
2019-03-10T07:01:09.316Z,997.24
2019-03-10T07:02:09.339Z,997.21
2019-03-10T07:03:09.362Z,997.16
2019-03-10T07:04:09.388Z,997.15
2019-03-10T07:05:09.410Z,997.08
2019-03-10T07:06:09.439Z,997.01
2019-03-10T07:07:09.467Z,996.95
2019-03-10T07:08:09.485Z,996.94
2019-03-10T07:09:09.510Z,996.96
2019-03-10T07:10:09.539Z,996.93
2019-03-10T07:11:09.557Z,996.90
2019-03-10T07:12:09.588Z,996.89
2019-03-10T07:13:09.604Z,996.90
2019-03-10T07:14:09.627Z,996.82
2019-03-10T07:15:09.654Z,996.84
2019-03-10T07:16:09.678Z,996.82
2019-03-10T07:17:09.703Z,996.82
2019-03-10T07:18:09.724Z,996.81
2019-03-10T07:19:09.755Z,996.76
2019-03-10T07:20:09.772Z,996.77
2019-03-10T07:21:09.808Z,996.75
2019-03-10T07:22:09.823Z,996.75
2019-03-10T07:23:09.847Z,996.78
2019-03-10T07:24:09.869Z,996.70
2019-03-10T07:25:09.899Z,996.68
2019-03-10T07:26:09.924Z,996.67
2019-03-10T07:27:09.961Z,996.71
2019-03-10T07:28:09.968Z,996.69
2019-03-10T07:29:09.991Z,996.60
2019-03-10T07:30:10.016Z,996.58
2019-03-10T07:31:10.040Z,996.54
2019-03-10T07:32:10.062Z,996.57
2019-03-10T07:33:10.088Z,996.59
2019-03-10T07:34:10.114Z,996.61
2019-03-10T07:35:10.137Z,996.61
2019-03-10T07:36:10.159Z,996.55
2019-03-10T07:37:10.189Z,996.57
2019-03-10T07:38:10.205Z,996.57
2019-03-10T07:39:10.232Z,996.53
2019-03-10T07:40:10.258Z,996.51
2019-03-10T07:41:10.281Z,996.46
2019-03-10T07:42:10.306Z,996.42
2019-03-10T07:43:10.336Z,996.34
2019-03-10T07:44:10.354Z,996.27
2019-03-10T07:45:10.376Z,996.25
2019-03-10T07:46:10.404Z,996.18
2019-03-10T07:47:10.424Z,996.27
2019-03-10T07:48:10.476Z,996.17
2019-03-10T07:49:10.477Z,996.18
2019-03-10T07:50:10.496Z,996.09
2019-03-10T07:51:10.525Z,996.02
2019-03-10T07:52:19.867Z,996.07
2019-03-10T07:53:10.572Z,996.07
2019-03-10T07:54:10.594Z,996.01
2019-03-10T07:55:10.624Z,996.00
2019-03-10T07:56:11.601Z,995.91
2019-03-10T07:57:10.667Z,995.88
2019-03-10T07:58:10.691Z,995.95
2019-03-10T07:59:10.713Z,995.93
2019-03-10T08:00:10.737Z,995.90
2019-03-10T08:01:10.763Z,995.92
2019-03-10T08:02:10.787Z,995.93
2019-03-10T08:03:10.809Z,995.87
2019-03-10T08:04:10.836Z,995.83
2019-03-10T08:05:10.858Z,995.83
2019-03-10T08:06:10.882Z,995.77
2019-03-10T08:07:10.907Z,995.75
2019-03-10T08:08:10.933Z,995.78
2019-03-10T08:09:10.957Z,995.71
2019-03-10T08:10:10.981Z,995.79
2019-03-10T08:11:11.006Z,995.71
2019-03-10T08:12:11.039Z,995.76
2019-03-10T08:13:11.050Z,995.74
2019-03-10T08:14:11.074Z,995.70
2019-03-10T08:15:11.104Z,995.68
2019-03-10T08:16:11.122Z,995.62
2019-03-10T08:17:11.149Z,995.60
2019-03-10T08:18:11.172Z,995.53
2019-03-10T08:19:11.197Z,995.52
2019-03-10T08:20:11.221Z,995.44
2019-03-10T08:21:11.244Z,995.40
2019-03-10T08:22:11.269Z,995.40
2019-03-10T08:23:11.293Z,995.42
2019-03-10T08:24:11.317Z,995.45
2019-03-10T08:25:11.338Z,995.41
2019-03-10T08:26:11.365Z,995.40
2019-03-10T08:27:11.387Z,995.35
2019-03-10T08:28:11.413Z,995.30
2019-03-10T08:29:11.435Z,995.25
2019-03-10T08:30:11.467Z,995.25
2019-03-10T08:31:11.486Z,995.18
2019-03-10T08:32:11.515Z,995.20
2019-03-10T08:33:11.535Z,995.18
2019-03-10T08:34:11.558Z,995.18
2019-03-10T08:35:11.582Z,995.19
2019-03-10T08:36:13.622Z,995.15
2019-03-10T08:37:11.634Z,995.11
2019-03-10T08:38:11.658Z,995.08
2019-03-10T08:39:11.679Z,995.08
2019-03-10T08:40:11.703Z,995.11
2019-03-10T08:41:11.730Z,995.04
2019-03-10T08:42:19.864Z,995.02
2019-03-10T08:43:11.774Z,995.04
2019-03-10T08:44:11.800Z,995.03
2019-03-10T08:45:11.821Z,994.99
2019-03-10T08:46:11.847Z,994.98
2019-03-10T08:47:11.867Z,994.97
2019-03-10T08:48:11.896Z,994.87
2019-03-10T08:49:11.916Z,994.88
2019-03-10T08:50:11.948Z,994.86
2019-03-10T08:51:11.964Z,994.84
2019-03-10T08:52:11.989Z,994.84
2019-03-10T08:53:12.015Z,994.77
2019-03-10T08:54:12.038Z,994.72
2019-03-10T08:55:12.058Z,994.67
2019-03-10T08:56:12.085Z,994.65
2019-03-10T08:57:12.117Z,994.66
2019-03-10T08:58:12.133Z,994.68
2019-03-10T08:59:12.157Z,994.68
2019-03-10T09:00:12.180Z,994.67
2019-03-10T09:01:12.210Z,994.69
2019-03-10T09:02:12.232Z,994.66
2019-03-10T09:03:12.254Z,994.68
2019-03-10T09:04:12.284Z,994.62
2019-03-10T09:05:12.302Z,994.62
2019-03-10T09:06:12.326Z,994.53
2019-03-10T09:07:12.347Z,994.49
2019-03-10T09:08:12.369Z,994.47
2019-03-10T09:09:12.396Z,994.41
2019-03-10T09:10:12.419Z,994.43
2019-03-10T09:11:12.443Z,994.33
2019-03-10T09:12:12.464Z,994.35
2019-03-10T09:13:12.501Z,994.31
2019-03-10T09:14:12.523Z,994.26
2019-03-10T09:15:12.536Z,994.29
2019-03-10T09:16:12.563Z,994.28
2019-03-10T09:17:12.589Z,994.28
2019-03-10T09:18:12.609Z,994.27
2019-03-10T09:19:12.631Z,994.28
2019-03-10T09:20:12.655Z,994.33
2019-03-10T09:21:12.679Z,994.28
2019-03-10T09:22:12.700Z,994.27
2019-03-10T09:23:12.727Z,994.16
2019-03-10T09:24:12.750Z,994.15
2019-03-10T09:25:12.775Z,994.13
2019-03-10T09:26:12.900Z,994.13
2019-03-10T09:27:12.822Z,994.14
2019-03-10T09:28:12.847Z,994.13
2019-03-10T09:29:12.871Z,994.11
2019-03-10T09:30:12.893Z,994.11
2019-03-10T09:31:12.918Z,994.06
2019-03-10T09:32:12.942Z,994.06
2019-03-10T09:33:12.966Z,994.05
2019-03-10T09:34:12.996Z,994.01
2019-03-10T09:35:13.011Z,994.01
2019-03-10T09:36:13.036Z,993.95
2019-03-10T09:37:13.064Z,993.99
2019-03-10T09:38:13.082Z,993.93
2019-03-10T09:39:13.109Z,993.88
2019-03-10T09:40:13.133Z,993.85
2019-03-10T09:41:13.155Z,993.77
2019-03-10T09:42:13.178Z,993.77
2019-03-10T09:43:13.808Z,993.74
2019-03-10T09:44:13.226Z,993.72
2019-03-10T09:45:13.250Z,993.75
2019-03-10T09:46:13.827Z,993.76
2019-03-10T09:47:13.306Z,993.70
2019-03-10T09:48:13.332Z,993.60
2019-03-10T09:49:13.798Z,993.52
2019-03-10T09:50:13.371Z,993.54
2019-03-10T09:51:13.402Z,993.54
2019-03-10T09:52:13.423Z,993.55
2019-03-10T09:53:13.449Z,993.49
2019-03-10T09:54:13.467Z,993.52
2019-03-10T09:55:13.491Z,993.48
2019-03-10T09:56:13.519Z,993.41
2019-03-10T09:57:13.538Z,993.44
2019-03-10T09:58:13.560Z,993.43
2019-03-10T09:59:13.585Z,993.44
2019-03-10T10:00:13.608Z,993.39
2019-03-10T10:01:13.636Z,993.33
2019-03-10T10:02:13.657Z,993.27
2019-03-10T10:03:13.690Z,993.17
2019-03-10T10:04:13.708Z,993.13
2019-03-10T10:05:13.737Z,993.13
2019-03-10T10:06:13.754Z,993.07
2019-03-10T10:07:13.786Z,993.02
2019-03-10T10:08:13.802Z,992.96
2019-03-10T10:09:13.827Z,992.90
2019-03-10T10:10:13.850Z,992.89
2019-03-10T10:11:13.882Z,992.86
2019-03-10T10:12:13.996Z,992.80
2019-03-10T10:13:13.930Z,992.72
2019-03-10T10:14:13.957Z,992.68
2019-03-10T10:15:13.981Z,992.77
2019-03-10T10:16:13.996Z,992.78
2019-03-10T10:17:14.027Z,992.75
2019-03-10T10:18:14.046Z,992.89
2019-03-10T10:19:14.068Z,992.90
2019-03-10T10:20:14.099Z,992.88
2019-03-10T10:21:14.120Z,992.91
2019-03-10T10:22:14.149Z,992.88
2019-03-10T10:23:14.168Z,992.87
2019-03-10T10:24:14.190Z,992.78
2019-03-10T10:25:14.215Z,992.71
2019-03-10T10:26:14.245Z,992.72
2019-03-10T10:27:14.265Z,992.64
2019-03-10T10:28:14.288Z,992.73
2019-03-10T10:29:14.312Z,992.73
2019-03-10T10:30:14.337Z,992.78
2019-03-10T10:31:14.369Z,992.71
2019-03-10T10:32:14.384Z,992.69
2019-03-10T10:33:14.413Z,992.63
2019-03-10T10:34:14.442Z,992.60
2019-03-10T10:35:14.457Z,992.54
2019-03-10T10:36:14.484Z,992.52
2019-03-10T10:37:14.513Z,992.51
2019-03-10T10:38:18.715Z,992.54
2019-03-10T10:39:14.555Z,992.62
2019-03-10T10:40:14.578Z,992.65
2019-03-10T10:41:14.606Z,992.71
2019-03-10T10:42:14.627Z,992.57
2019-03-10T10:43:14.653Z,992.48
2019-03-10T10:44:14.679Z,992.41
2019-03-10T10:45:14.706Z,992.38
2019-03-10T10:46:14.727Z,992.33
2019-03-10T10:47:14.753Z,992.29
2019-03-10T10:48:14.771Z,992.23
2019-03-10T10:49:14.799Z,992.19
2019-03-10T10:50:14.831Z,992.20
2019-03-10T10:51:14.858Z,992.17
2019-03-10T10:52:14.870Z,992.15
2019-03-10T10:53:14.900Z,992.17
2019-03-10T10:54:14.921Z,992.17
2019-03-10T10:55:14.948Z,992.17
2019-03-10T10:56:14.964Z,992.11
2019-03-10T10:57:15.075Z,992.13
2019-03-10T10:58:15.012Z,992.12
2019-03-10T10:59:15.037Z,992.12
2019-03-10T11:00:15.062Z,992.08
2019-03-10T11:01:15.087Z,991.99
2019-03-10T11:02:15.112Z,992.04
2019-03-10T11:03:15.137Z,992.07
2019-03-10T11:04:15.159Z,992.02
2019-03-10T11:05:15.182Z,991.98
2019-03-10T11:06:15.207Z,991.97
2019-03-10T11:07:15.229Z,991.92
2019-03-10T11:08:15.256Z,991.89
2019-03-10T11:09:15.279Z,991.87
2019-03-10T11:10:15.310Z,991.89
2019-03-10T11:11:15.329Z,991.90
2019-03-10T11:12:15.360Z,991.85
2019-03-10T11:13:15.381Z,991.84
2019-03-10T11:14:15.402Z,991.85
2019-03-10T11:15:15.429Z,991.82
2019-03-10T11:16:15.456Z,991.78
2019-03-10T11:17:15.474Z,991.71
2019-03-10T11:18:15.503Z,991.69
2019-03-10T11:19:15.522Z,991.68
2019-03-10T11:20:15.544Z,991.65
2019-03-10T11:21:15.569Z,991.68
2019-03-10T11:22:15.592Z,991.60
2019-03-10T11:23:15.618Z,991.62
2019-03-10T11:24:15.641Z,991.63
2019-03-10T11:25:15.670Z,991.61
2019-03-10T11:26:15.689Z,991.52
2019-03-10T11:27:15.716Z,991.52
2019-03-10T11:28:15.740Z,991.53
2019-03-10T11:29:15.766Z,991.64
2019-03-10T11:30:15.793Z,991.65
2019-03-10T11:31:15.817Z,991.64
2019-03-10T11:32:15.834Z,991.61
2019-03-10T11:33:15.862Z,991.58
2019-03-10T11:34:15.883Z,991.61
2019-03-10T11:35:15.911Z,991.53
2019-03-10T11:36:15.935Z,991.50
2019-03-10T11:37:15.964Z,991.49
2019-03-10T11:38:15.983Z,991.51
2019-03-10T11:39:16.012Z,991.39
2019-03-10T11:40:16.032Z,991.44
2019-03-10T11:41:16.054Z,991.45
2019-03-10T11:42:16.080Z,991.34
2019-03-10T11:43:16.109Z,991.33
2019-03-10T11:44:16.135Z,991.11
2019-03-10T11:45:16.151Z,991.17
2019-03-10T11:46:16.184Z,991.14
2019-03-10T11:47:16.209Z,991.18
2019-03-10T11:48:16.228Z,991.18
2019-03-10T11:49:16.249Z,991.07
2019-03-10T11:50:16.277Z,991.10
2019-03-10T11:51:16.299Z,991.12
2019-03-10T11:52:16.321Z,991.10
2019-03-10T11:53:19.547Z,991.11
2019-03-10T11:54:16.368Z,991.03
2019-03-10T11:55:16.403Z,991.03
2019-03-10T11:56:16.422Z,990.97
2019-03-10T11:57:16.439Z,991.01
2019-03-10T11:58:16.470Z,990.97
2019-03-10T11:59:16.487Z,990.96
2019-03-10T12:00:16.511Z,990.96
2019-03-10T12:01:16.536Z,990.87
2019-03-10T12:02:16.813Z,990.83
2019-03-10T12:03:16.584Z,990.78
2019-03-10T12:04:16.609Z,990.83
2019-03-10T12:05:16.636Z,990.76
2019-03-10T12:06:16.659Z,990.75
2019-03-10T12:07:16.682Z,990.76
2019-03-10T12:08:16.709Z,990.74
2019-03-10T12:09:16.731Z,990.64
2019-03-10T12:10:16.798Z,990.70
2019-03-10T12:11:16.780Z,990.68
2019-03-10T12:12:16.804Z,990.60
2019-03-10T12:13:16.826Z,990.56
2019-03-10T12:14:16.853Z,990.58
2019-03-10T12:15:16.875Z,990.53
2019-03-10T12:16:16.901Z,990.45
2019-03-10T12:17:16.925Z,990.41
2019-03-10T12:18:16.947Z,990.32
2019-03-10T12:19:16.975Z,990.37